Fair Play, MO (65649)

6:00 PM CST on December 18, 2014 (GMT -0600)
Between Arnica And Bugtussle | Change Station
CLOSE
Current Station
Personal Weather Station
Location: Humansville, MO
Elevation: 1010 ft
Nearby Weather Stations

Elev 1010 ft 37.75 °N, 93.67 °W | Updated 6 seconds ago

Overcast
Overcast
35.1 °F
Feels Like 35 °F
N
0.0
Wind Variable Wind from East
Gusts 0.0 mph

Today
High -- | Low -- °F
--% Chance of Precip.
Yesterday
High -- | Low -- °F
Precip. -- in
7:24 AM 4:58 PM
Waning Crescent, 11% visible
Pressure 30.20 in
Visibility 8.0 miles
Clouds Overcast 600 ft
Windchill 35 °F
Dew Point -2 °F
Humidity 20%
Rainfall 0.00 in
Snow Depth Not available.
UV 0 out of 12
Pollen .60 out of 12
Air Quality Not available.
Flu Activity Not available.
METAR KSGF 182352Z 02005KT 8SM OVC006 03/02 A3017 RMK AO2 SLP225 T00330022 10039 20022 53011

More Conditions Fewer Conditions

Pressure 30.20 in
Visibility 8.0 miles
Clouds Overcast 600 ft
Windchill 35 °F
Dew Point -2 °F
Humidity 20%
Rainfall 0.00 in
Snow Depth Not available.
UV 0 out of 12
Pollen .60 out of 12
Air Quality Not available.
Flu Activity Not available.
METAR KSGF 182352Z 02005KT 8SM OVC006 03/02 A3017 RMK AO2 SLP225 T00330022 10039 20022 53011

More Conditions Fewer Conditions

10-Day Weather Forecast

Almanac

Astronomy

Dec. 18, 2014 Rise Set
Actual Time
Civil Twilight
Nautical Twilight
Astronomical Twilight
Moon
Length of Visible Light
Length of Day
Tomorrow will be .
, % of the Moon is Illuminated

Today's Extremes

State Highs State Lows

Community

WunderPhotos

Upload Photos

1,779,012 photos uploaded!

WunderBlogs® & News

Nearby

Air Quality

  Air Quality AQ Index Pollutant
Not available.

Snow Depth

Station Depth Elevation

Earthquake Activity

City Distance Mag. Time & Date
Minimum magnitude displayed is 2.5.

Coastal Water Temperatures

Place Temperature

Nearby Weather Stations